Time;durP1;ratioP1;P1;durP2;ratioP2;P2;SDS_P1;SDS_P2;PMS_P1;PMS_P2;Temp;Humidity;BMP_temperature;BMP_pressure;BME280_temperature;BME280_humidity;BME280_pressure;Samples;Min_cycle;Max_cycle;Signal;HPM_P1;HPM_P2
2023/12/14 00:02:15;;;;;;;23.33;10.30;;;;;;;;;;5793910;28;20047;-79
2023/12/14 00:05:06;;;;;;;17.70;8.70;;;;;;;;;;5794795;28;20055;-79
2023/12/14 00:07:57;;;;;;;13.98;6.28;;;;;;;;;;5795500;28;20054;-79
2023/12/14 00:10:50;;;;;;;14.07;7.13;;;;;;;;;;5793571;28;20047;-79
2023/12/14 00:13:41;;;;;;;20.33;12.27;;;;;;;;;;5809736;28;20062;-79
2023/12/14 00:16:31;;;;;;;25.80;12.07;;;;;;;;;;5809661;28;20527;-79
2023/12/14 00:19:23;;;;;;;18.48;12.65;;;;;;;;;;5809775;28;20043;-79
2023/12/14 00:22:14;;;;;;;18.45;9.00;;;;;;;;;;5794674;28;20061;-79
2023/12/14 00:25:05;;;;;;;16.80;8.43;;;;;;;;;;5793492;28;20424;-79
2023/12/14 00:27:56;;;;;;;33.90;10.05;;;;;;;;;;5794884;28;20287;-79
2023/12/14 00:30:47;;;;;;;15.77;9.48;;;;;;;;;;5794465;28;20054;-79
2023/12/14 00:33:38;;;;;;;25.85;13.73;;;;;;;;;;5794404;28;20536;-79
2023/12/14 00:36:29;;;;;;;13.93;8.63;;;;;;;;;;5809295;28;20047;-79
2023/12/14 00:39:19;;;;;;;23.55;13.07;;;;;;;;;;5793138;28;20050;-79
2023/12/14 00:42:10;;;;;;;17.30;13.27;;;;;;;;;;5794208;28;20054;-79
2023/12/14 00:45:01;;;;;;;29.95;13.30;;;;;;;;;;5794486;28;20047;-79
2023/12/14 00:47:52;;;;;;;19.30;12.50;;;;;;;;;;5794646;28;20636;-79
2023/12/14 00:50:43;;;;;;;28.20;14.60;;;;;;;;;;5807801;28;20182;-79
2023/12/14 00:53:34;;;;;;;19.63;12.70;;;;;;;;;;5792893;28;20624;-79
2023/12/14 00:56:24;;;;;;;21.98;12.43;;;;;;;;;;5792779;28;20485;-79
2023/12/14 00:59:15;;;;;;;12.90;10.43;;;;;;;;;;5777142;28;20182;-79
2023/12/14 01:02:06;;;;;;;15.15;9.35;;;;;;;;;;5802945;28;20157;-79
2023/12/14 01:04:57;;;;;;;22.25;12.32;;;;;;;;;;5802537;28;20536;-79
2023/12/14 01:07:49;;;;;;;16.70;12.80;;;;;;;;;;5777208;28;20047;-79
2023/12/14 01:10:40;;;;;;;20.70;9.68;;;;;;;;;;5792616;28;20054;-79
2023/12/14 01:13:31;;;;;;;14.20;9.02;;;;;;;;;;5794129;28;20091;-79
2023/12/14 01:16:27;;;;;;;13.85;8.95;;;;;;;;;;5794300;28;20054;-79
2023/12/14 01:19:18;;;;;;;12.70;9.15;;;;;;;;;;5797152;28;20521;-79
2023/12/14 01:22:08;;;;;;;8.25;7.43;;;;;;;;;;5798694;28;20055;-79
2023/12/14 01:24:59;;;;;;;22.33;10.80;;;;;;;;;;5799132;28;20512;-79
2023/12/14 01:27:50;;;;;;;16.63;10.95;;;;;;;;;;5798368;28;20050;-79
2023/12/14 01:30:41;;;;;;;18.00;10.30;;;;;;;;;;5797009;28;20050;-79
2023/12/14 01:33:32;;;;;;;9.20;8.25;;;;;;;;;;5810591;28;20042;-79
2023/12/14 01:36:24;;;;;;;10.40;8.43;;;;;;;;;;5796951;28;20051;-79
2023/12/14 01:39:15;;;;;;;10.55;8.32;;;;;;;;;;5796991;28;20058;-79
2023/12/14 01:42:07;;;;;;;12.20;6.30;;;;;;;;;;5798310;28;20058;-79
2023/12/14 01:44:57;;;;;;;8.00;5.00;;;;;;;;;;5797237;28;20058;-79
2023/12/14 01:47:48;;;;;;;8.07;7.25;;;;;;;;;;5796563;28;20394;-79
2023/12/14 01:50:39;;;;;;;12.50;8.35;;;;;;;;;;5797743;28;20061;-79
2023/12/14 01:53:30;;;;;;;8.77;7.85;;;;;;;;;;5797727;28;20050;-79
2023/12/14 01:56:21;;;;;;;14.73;10.85;;;;;;;;;;5796677;28;20054;-79
2023/12/14 01:59:13;;;;;;;10.07;8.45;;;;;;;;;;5796666;28;20054;-79
2023/12/14 02:02:05;;;;;;;18.17;9.02;;;;;;;;;;5796406;28;20073;-79
2023/12/14 02:04:56;;;;;;;17.38;8.73;;;;;;;;;;5796856;28;20097;-79
2023/12/14 02:07:47;;;;;;;9.88;8.07;;;;;;;;;;5797513;28;20125;-79
2023/12/14 02:10:38;;;;;;;9.40;6.55;;;;;;;;;;5796198;28;20127;-79
2023/12/14 02:13:28;;;;;;;9.75;7.57;;;;;;;;;;5780302;28;20055;-79
2023/12/14 02:16:19;;;;;;;13.52;7.53;;;;;;;;;;5808157;28;20496;-79
2023/12/14 02:19:10;;;;;;;49.92;12.15;;;;;;;;;;5780233;28;20057;-79
2023/12/14 02:22:01;;;;;;;18.35;8.07;;;;;;;;;;5797558;28;20061;-79
2023/12/14 02:24:52;;;;;;;51.67;11.68;;;;;;;;;;5796586;28;20053;-79
2023/12/14 02:27:43;;;;;;;48.38;7.93;;;;;;;;;;5797213;28;20062;-79
2023/12/14 02:30:33;;;;;;;80.70;8.77;;;;;;;;;;5811973;28;20493;-79
2023/12/14 02:33:24;;;;;;;18.23;9.00;;;;;;;;;;5797078;28;20133;-79
2023/12/14 02:36:15;;;;;;;39.25;7.47;;;;;;;;;;5779785;28;20647;-79
2023/12/14 02:39:06;;;;;;;26.77;5.70;;;;;;;;;;5779907;28;20580;-79
2023/12/14 02:41:56;;;;;;;61.25;8.70;;;;;;;;;;5788980;28;20055;-79
2023/12/14 02:44:47;;;;;;;17.50;7.25;;;;;;;;;;5796886;28;20436;-79
2023/12/14 02:47:38;;;;;;;33.25;7.10;;;;;;;;;;5811245;28;20046;-79
2023/12/14 02:50:29;;;;;;;64.45;11.48;;;;;;;;;;5796527;28;20050;-79
2023/12/14 02:53:19;;;;;;;27.38;7.43;;;;;;;;;;5795419;28;20616;-79
2023/12/14 02:56:11;;;;;;;11.85;7.32;;;;;;;;;;5806262;28;20062;-79
2023/12/14 02:59:02;;;;;;;8.88;6.07;;;;;;;;;;5804992;28;20612;-79
2023/12/14 03:01:53;;;;;;;32.90;6.25;;;;;;;;;;5803833;28;20424;-79
2023/12/14 03:04:44;;;;;;;31.42;7.03;;;;;;;;;;5811140;28;20133;-79
2023/12/14 03:07:34;;;;;;;30.75;10.93;;;;;;;;;;5796375;28;20053;-79
2023/12/14 03:10:25;;;;;;;30.17;7.72;;;;;;;;;;5796249;28;20197;-79
2023/12/14 03:13:16;;;;;;;15.20;6.72;;;;;;;;;;5795122;28;20061;-79
2023/12/14 03:16:07;;;;;;;14.20;6.88;;;;;;;;;;5796358;28;20051;-79
2023/12/14 03:18:58;;;;;;;53.03;8.45;;;;;;;;;;5796394;28;20055;-79
2023/12/14 03:21:49;;;;;;;8.30;4.97;;;;;;;;;;5796258;28;20160;-79
2023/12/14 03:24:40;;;;;;;15.82;9.75;;;;;;;;;;5794743;28;20069;-80
2023/12/14 03:27:30;;;;;;;8.18;4.95;;;;;;;;;;5796037;28;20042;-79
2023/12/14 03:30:21;;;;;;;9.85;6.85;;;;;;;;;;5795826;28;20062;-79
2023/12/14 03:33:12;;;;;;;10.77;6.38;;;;;;;;;;5795760;28;20057;-79
2023/12/14 03:36:03;;;;;;;7.30;5.97;;;;;;;;;;5778310;28;20129;-79
2023/12/14 03:38:54;;;;;;;6.35;5.10;;;;;;;;;;5794874;28;20050;-79
2023/12/14 03:41:45;;;;;;;8.32;4.35;;;;;;;;;;5795037;28;20390;-79
2023/12/14 03:44:36;;;;;;;7.70;5.90;;;;;;;;;;5794180;28;20050;-79
2023/12/14 03:47:27;;;;;;;11.75;6.03;;;;;;;;;;5795576;28;20576;-79
2023/12/14 03:50:18;;;;;;;6.82;4.53;;;;;;;;;;5793896;28;20065;-79
2023/12/14 03:53:09;;;;;;;6.90;4.00;;;;;;;;;;5794033;28;20051;-79
2023/12/14 03:56:00;;;;;;;6.45;4.40;;;;;;;;;;5795787;28;20078;-79
2023/12/14 03:58:51;;;;;;;6.10;2.67;;;;;;;;;;5795507;28;20177;-79
2023/12/14 04:01:42;;;;;;;8.02;4.35;;;;;;;;;;5795148;28;20039;-79
2023/12/14 04:04:32;;;;;;;9.18;5.13;;;;;;;;;;5795180;28;20077;-79
2023/12/14 04:07:23;;;;;;;5.60;3.58;;;;;;;;;;5794917;28;20051;-79
2023/12/14 04:10:14;;;;;;;12.57;3.22;;;;;;;;;;5795064;28;20121;-79
2023/12/14 04:13:05;;;;;;;8.45;4.57;;;;;;;;;;5794787;28;20051;-79
2023/12/14 04:15:57;;;;;;;6.07;4.13;;;;;;;;;;5795538;28;20178;-79
2023/12/14 04:18:48;;;;;;;5.38;4.35;;;;;;;;;;5795004;28;20050;-80
2023/12/14 04:21:39;;;;;;;11.63;5.28;;;;;;;;;;5777357;28;20089;-80
2023/12/14 04:24:30;;;;;;;9.63;5.78;;;;;;;;;;5793454;28;20093;-80
2023/12/14 04:27:24;;;;;;;10.27;6.47;;;;;;;;;;5805413;28;20134;-80
2023/12/14 04:30:14;;;;;;;11.63;7.15;;;;;;;;;;5794625;28;20058;-80
2023/12/14 04:33:05;;;;;;;7.68;5.57;;;;;;;;;;5793207;28;20178;-80
2023/12/14 04:35:56;;;;;;;4.80;4.30;;;;;;;;;;5794923;28;20708;-80
2023/12/14 04:38:47;;;;;;;12.90;7.30;;;;;;;;;;5794534;28;20053;-80
2023/12/14 04:41:37;;;;;;;7.32;4.72;;;;;;;;;;5809408;28;20050;-80
2023/12/14 04:44:28;;;;;;;8.30;6.07;;;;;;;;;;5794698;28;20054;-80
2023/12/14 04:47:19;;;;;;;20.45;5.07;;;;;;;;;;5794500;28;20496;-80
2023/12/14 04:50:10;;;;;;;5.47;4.63;;;;;;;;;;5792932;28;20047;-80
2023/12/14 04:53:01;;;;;;;5.60;4.63;;;;;;;;;;5793408;28;20054;-80
2023/12/14 04:55:52;;;;;;;8.70;5.53;;;;;;;;;;5777587;28;20161;-80
2023/12/14 04:58:42;;;;;;;7.75;5.50;;;;;;;;;;5793961;28;20047;-80
2023/12/14 05:01:33;;;;;;;7.78;5.10;;;;;;;;;;5794168;28;20047;-80
2023/12/14 05:04:24;;;;;;;8.60;6.45;;;;;;;;;;5805344;28;20050;-80
2023/12/14 05:07:15;;;;;;;5.75;3.95;;;;;;;;;;5792752;28;20498;-80
2023/12/14 05:10:07;;;;;;;5.35;4.85;;;;;;;;;;5792869;28;20400;-80
2023/12/14 05:12:57;;;;;;;6.95;4.68;;;;;;;;;;5777218;28;20069;-80
2023/12/14 05:15:48;;;;;;;5.22;3.65;;;;;;;;;;5793860;28;20047;-80
2023/12/14 05:18:39;;;;;;;7.63;5.72;;;;;;;;;;5776592;28;20054;-80
2023/12/14 05:21:30;;;;;;;6.40;4.75;;;;;;;;;;5793864;28;20054;-80
2023/12/14 05:24:21;;;;;;;14.05;5.40;;;;;;;;;;5792663;28;20078;-80
2023/12/14 05:27:12;;;;;;;6.00;4.07;;;;;;;;;;5793668;28;20053;-80
2023/12/14 05:30:03;;;;;;;5.80;3.13;;;;;;;;;;5802184;28;20047;-80
2023/12/14 05:32:54;;;;;;;3.47;3.17;;;;;;;;;;5793103;28;20047;-80
2023/12/14 05:35:45;;;;;;;3.45;2.92;;;;;;;;;;5807738;28;20042;-80
2023/12/14 05:38:38;;;;;;;5.03;4.32;;;;;;;;;;5793622;28;20051;-80
2023/12/14 05:41:29;;;;;;;8.90;4.32;;;;;;;;;;5792354;28;20155;-80
2023/12/14 05:44:22;;;;;;;4.30;3.28;;;;;;;;;;5808336;28;20496;-80
2023/12/14 05:47:13;;;;;;;7.95;4.90;;;;;;;;;;5776564;28;20047;-80
2023/12/14 05:50:05;;;;;;;9.02;6.47;;;;;;;;;;5792186;28;20070;-80
2023/12/14 05:52:55;;;;;;;5.65;3.60;;;;;;;;;;5808871;28;20251;-80
2023/12/14 05:55:46;;;;;;;4.32;3.75;;;;;;;;;;5793647;28;20174;-80
2023/12/14 05:58:40;;;;;;;9.02;4.57;;;;;;;;;;5792371;28;20067;-80
2023/12/14 06:01:30;;;;;;;9.45;3.97;;;;;;;;;;5793666;28;20047;-79
2023/12/14 06:04:21;;;;;;;6.57;4.53;;;;;;;;;;5795890;28;20050;-79
2023/12/14 06:07:15;;;;;;;7.15;4.07;;;;;;;;;;5796350;28;20043;-79
2023/12/14 06:10:06;;;;;;;7.43;4.88;;;;;;;;;;5796365;28;20058;-79
2023/12/14 06:12:58;;;;;;;4.57;3.05;;;;;;;;;;5796626;28;20065;-79
2023/12/14 06:15:48;;;;;;;3.22;2.92;;;;;;;;;;5796375;28;20123;-79
2023/12/14 06:18:43;;;;;;;8.82;5.20;;;;;;;;;;5795927;28;20038;-79
2023/12/14 06:21:34;;;;;;;8.23;5.13;;;;;;;;;;5796201;28;20089;-79
2023/12/14 06:24:25;;;;;;;7.45;3.30;;;;;;;;;;5779999;28;20386;-79
2023/12/14 06:27:15;;;;;;;5.90;5.07;;;;;;;;;;5795869;28;20127;-79
2023/12/14 06:30:09;;;;;;;5.35;4.22;;;;;;;;;;5797275;28;20474;-79
2023/12/14 06:33:00;;;;;;;5.50;4.43;;;;;;;;;;5797558;28;20479;-79
2023/12/14 06:35:51;;;;;;;5.32;3.83;;;;;;;;;;5795890;28;20477;-79
2023/12/14 06:38:41;;;;;;;4.38;3.75;;;;;;;;;;5795703;28;20432;-79
2023/12/14 06:41:32;;;;;;;6.95;4.03;;;;;;;;;;5795602;28;20042;-79
2023/12/14 06:44:25;;;;;;;6.40;4.60;;;;;;;;;;5797092;28;20046;-79
2023/12/14 06:47:16;;;;;;;5.47;4.03;;;;;;;;;;5796359;28;20204;-79
2023/12/14 06:50:07;;;;;;;5.40;3.20;;;;;;;;;;5805771;28;20050;-79
2023/12/14 06:52:58;;;;;;;6.68;2.28;;;;;;;;;;5797153;28;20063;-79
2023/12/14 06:55:49;;;;;;;4.13;2.80;;;;;;;;;;5795487;28;20062;-79
2023/12/14 06:58:41;;;;;;;6.25;4.35;;;;;;;;;;5811264;28;20460;-79
2023/12/14 07:01:32;;;;;;;6.93;4.45;;;;;;;;;;5796429;28;20437;-79
2023/12/14 07:04:23;;;;;;;4.40;3.10;;;;;;;;;;5796293;28;20046;-79
2023/12/14 07:07:15;;;;;;;6.78;6.03;;;;;;;;;;5796425;28;20153;-79
2023/12/14 07:10:06;;;;;;;9.65;7.80;;;;;;;;;;5796231;28;20055;-79
2023/12/14 07:12:57;;;;;;;17.10;7.88;;;;;;;;;;5795454;28;20101;-79
2023/12/14 07:15:48;;;;;;;8.85;7.20;;;;;;;;;;5809767;28;20061;-79
2023/12/14 07:18:41;;;;;;;39.17;25.65;;;;;;;;;;5796303;28;20157;-79
2023/12/14 07:21:32;;;;;;;39.85;18.65;;;;;;;;;;5794583;28;20126;-79
2023/12/14 07:24:23;;;;;;;19.70;10.98;;;;;;;;;;5796036;28;20046;-79
2023/12/14 07:27:14;;;;;;;18.88;10.35;;;;;;;;;;5794412;28;20051;-79
2023/12/14 07:30:06;;;;;;;12.57;8.63;;;;;;;;;;5810701;28;20046;-79
2023/12/14 07:32:56;;;;;;;7.68;5.90;;;;;;;;;;5796182;28;20062;-79
2023/12/14 07:35:47;;;;;;;9.48;6.50;;;;;;;;;;5810426;28;20500;-79
2023/12/14 07:38:38;;;;;;;14.45;6.70;;;;;;;;;;5794050;28;20057;-79
2023/12/14 07:41:32;;;;;;;15.05;7.43;;;;;;;;;;5795755;28;20058;-79
2023/12/14 07:44:24;;;;;;;6.85;4.95;;;;;;;;;;5795636;28;20131;-79
2023/12/14 07:47:15;;;;;;;7.30;5.53;;;;;;;;;;5795397;28;20090;-79
2023/12/14 07:50:07;;;;;;;9.23;5.93;;;;;;;;;;5793850;28;20055;-79
2023/12/14 07:52:58;;;;;;;10.63;8.43;;;;;;;;;;5795905;28;20054;-79
2023/12/14 07:55:48;;;;;;;10.55;4.80;;;;;;;;;;5794088;28;20042;-79
2023/12/14 07:58:39;;;;;;;4.00;3.60;;;;;;;;;;5777971;28;20604;-79
2023/12/14 08:01:30;;;;;;;3.67;2.38;;;;;;;;;;5795210;28;20047;-79
2023/12/14 08:04:21;;;;;;;4.68;2.92;;;;;;;;;;5795181;28;20065;-79
2023/12/14 08:07:12;;;;;;;3.92;2.78;;;;;;;;;;5809805;28;20496;-79
2023/12/14 08:10:03;;;;;;;3.78;2.42;;;;;;;;;;5793597;28;20414;-79
2023/12/14 08:12:54;;;;;;;4.85;3.63;;;;;;;;;;5794227;28;20050;-79
2023/12/14 08:15:44;;;;;;;8.77;3.50;;;;;;;;;;5794833;28;20135;-79
2023/12/14 08:18:35;;;;;;;4.75;4.25;;;;;;;;;;5793456;28;20043;-79
2023/12/14 08:21:26;;;;;;;15.68;3.95;;;;;;;;;;5777616;28;20058;-79
2023/12/14 08:24:17;;;;;;;5.78;4.32;;;;;;;;;;5794629;28;20062;-79
2023/12/14 08:27:08;;;;;;;5.13;4.05;;;;;;;;;;5793191;28;20057;-79
2023/12/14 08:29:59;;;;;;;8.82;4.07;;;;;;;;;;5777966;28;20057;-79
2023/12/14 08:32:49;;;;;;;5.40;2.72;;;;;;;;;;5793539;28;20052;-79
2023/12/14 08:35:40;;;;;;;8.25;4.80;;;;;;;;;;5777070;28;20505;-79
2023/12/14 08:38:31;;;;;;;5.00;3.80;;;;;;;;;;5793149;28;20420;-79
2023/12/14 08:41:22;;;;;;;10.23;5.15;;;;;;;;;;5792997;28;20047;-79
2023/12/14 08:44:14;;;;;;;6.57;5.70;;;;;;;;;;5792965;28;20051;-79
2023/12/14 08:47:05;;;;;;;5.97;5.47;;;;;;;;;;5776957;28;20130;-79
2023/12/14 08:49:56;;;;;;;8.55;6.25;;;;;;;;;;5794475;28;20062;-79
2023/12/14 08:52:47;;;;;;;9.85;6.63;;;;;;;;;;5793030;28;20584;-79
2023/12/14 08:55:38;;;;;;;8.50;5.15;;;;;;;;;;5794288;28;20050;-79
2023/12/14 08:58:29;;;;;;;6.07;4.63;;;;;;;;;;5806061;28;20129;-79
2023/12/14 09:01:21;;;;;;;7.20;5.20;;;;;;;;;;5793777;28;20051;-79
2023/12/14 09:04:13;;;;;;;10.07;7.43;;;;;;;;;;5792735;28;20079;-79
2023/12/14 09:07:04;;;;;;;18.23;10.18;;;;;;;;;;5792845;28;20055;-79
2023/12/14 09:09:54;;;;;;;10.10;7.22;;;;;;;;;;5794529;28;20245;-79
2023/12/14 09:12:45;;;;;;;12.43;7.00;;;;;;;;;;5793785;28;20393;-79
2023/12/14 09:15:36;;;;;;;11.10;7.57;;;;;;;;;;5792507;28;20057;-79
2023/12/14 09:18:27;;;;;;;9.50;6.45;;;;;;;;;;5792513;28;20062;-79
2023/12/14 09:21:18;;;;;;;4.35;3.95;;;;;;;;;;5792430;28;20065;-79
2023/12/14 09:24:12;;;;;;;5.57;4.35;;;;;;;;;;5792573;28;20130;-79
2023/12/14 09:27:04;;;;;;;6.45;5.55;;;;;;;;;;5776803;28;20134;-79
2023/12/14 09:29:56;;;;;;;9.40;4.63;;;;;;;;;;5794009;28;20042;-79
2023/12/14 09:32:46;;;;;;;6.68;5.25;;;;;;;;;;5793876;28;20053;-79
2023/12/14 09:35:38;;;;;;;9.82;5.90;;;;;;;;;;5792631;28;20454;-79
2023/12/14 09:38:29;;;;;;;6.15;4.68;;;;;;;;;;5810062;28;20050;-79
2023/12/14 09:41:19;;;;;;;11.07;7.03;;;;;;;;;;5798318;28;20050;-79
2023/12/14 09:44:10;;;;;;;6.47;4.90;;;;;;;;;;5798066;28;20376;-79
2023/12/14 09:47:04;;;;;;;9.10;6.80;;;;;;;;;;5796814;28;20057;-79
2023/12/14 09:49:55;;;;;;;7.60;6.70;;;;;;;;;;5781719;28;20064;-79
2023/12/14 09:52:48;;;;;;;8.57;5.18;;;;;;;;;;5797989;28;20117;-79
2023/12/14 09:55:39;;;;;;;6.20;5.13;;;;;;;;;;5798087;28;20509;-79
2023/12/14 09:58:33;;;;;;;7.07;5.25;;;;;;;;;;5796559;28;20512;-80
2023/12/14 10:01:26;;;;;;;4.88;3.92;;;;;;;;;;5796155;28;20051;-79
2023/12/14 10:04:19;;;;;;;6.63;3.50;;;;;;;;;;5796378;28;20061;-79
2023/12/14 10:07:10;;;;;;;9.30;6.07;;;;;;;;;;5796448;28;20062;-80
2023/12/14 10:10:11;;;;;;;21.35;5.30;;;;;;;;;;5812112;28;20440;-80
2023/12/14 10:13:02;;;;;;;10.13;6.82;;;;;;;;;;5796265;28;20062;-79
2023/12/14 10:15:53;;;;;;;12.32;7.72;;;;;;;;;;5796404;28;20046;-79
2023/12/14 10:18:43;;;;;;;12.07;6.32;;;;;;;;;;5811191;28;20050;-79
2023/12/14 10:21:35;;;;;;;9.20;8.27;;;;;;;;;;5780225;28;20047;-79
2023/12/14 10:24:26;;;;;;;9.05;7.03;;;;;;;;;;5796197;28;20149;-79
2023/12/14 10:27:17;;;;;;;7.47;6.28;;;;;;;;;;5797269;28;20057;-80
2023/12/14 10:30:12;;;;;;;14.02;11.15;;;;;;;;;;5779582;28;20065;-79
2023/12/14 10:33:03;;;;;;;17.73;11.63;;;;;;;;;;5797212;28;20058;-79
2023/12/14 10:35:54;;;;;;;25.35;14.20;;;;;;;;;;5795903;28;20054;-79
2023/12/14 10:38:47;;;;;;;8.45;6.97;;;;;;;;;;5795659;28;20496;-79
2023/12/14 10:41:39;;;;;;;12.73;8.05;;;;;;;;;;5779918;28;20386;-79
2023/12/14 10:44:32;;;;;;;14.95;7.78;;;;;;;;;;5795517;28;20042;-79
2023/12/14 10:47:50;;;;;;;10.88;6.78;;;;;;;;;;5795513;28;20102;-80
2023/12/14 10:50:43;;;;;;;7.75;5.68;;;;;;;;;;5793826;28;20050;-80
2023/12/14 10:53:35;;;;;;;9.15;7.03;;;;;;;;;;5796431;28;20386;-79
2023/12/14 10:56:27;;;;;;;16.25;8.13;;;;;;;;;;5796625;28;20074;-79
2023/12/14 10:59:25;;;;;;;9.73;7.15;;;;;;;;;;5796443;28;20042;-79
2023/12/14 11:02:17;;;;;;;11.68;7.20;;;;;;;;;;5796610;28;20500;-79
2023/12/14 11:05:09;;;;;;;10.55;7.28;;;;;;;;;;5795080;28;20050;-79
2023/12/14 11:08:09;;;;;;;7.70;6.60;;;;;;;;;;5796996;28;20063;-79
2023/12/14 11:11:10;;;;;;;11.80;7.95;;;;;;;;;;5810120;28;20058;-79
2023/12/14 11:14:04;;;;;;;9.18;5.82;;;;;;;;;;5796209;28;20161;-80
2023/12/14 11:17:06;;;;;;;10.18;8.27;;;;;;;;;;5796506;28;20412;-79
2023/12/14 11:20:24;;;;;;;16.13;8.70;;;;;;;;;;5795113;28;20043;-80
2023/12/14 11:23:38;;;;;;;9.63;7.13;;;;;;;;;;5794426;28;20050;-79
2023/12/14 11:26:29;;;;;;;15.40;11.13;;;;;;;;;;5799164;28;20042;-79
2023/12/14 11:29:21;;;;;;;12.30;9.18;;;;;;;;;;5794151;28;20129;-79
2023/12/14 11:32:13;;;;;;;10.15;8.60;;;;;;;;;;5795836;28;20738;-79
2023/12/14 11:35:04;;;;;;;17.55;10.98;;;;;;;;;;5795585;28;20122;-79
2023/12/14 11:37:59;;;;;;;13.88;10.70;;;;;;;;;;5794988;28;20046;-79
2023/12/14 11:40:51;;;;;;;14.35;8.65;;;;;;;;;;5794653;28;20042;-79
2023/12/14 11:43:43;;;;;;;12.55;9.77;;;;;;;;;;5792495;28;20173;-79
2023/12/14 11:46:36;;;;;;;17.80;11.85;;;;;;;;;;5776236;28;20051;-79
2023/12/14 11:49:27;;;;;;;9.88;7.97;;;;;;;;;;5791877;28;20565;-79
2023/12/14 11:52:18;;;;;;;11.10;8.95;;;;;;;;;;5793148;28;20295;-79
2023/12/14 11:55:12;;;;;;;15.85;10.77;;;;;;;;;;5791595;28;20054;-79
2023/12/14 11:58:03;;;;;;;13.82;8.63;;;;;;;;;;5794075;28;20065;-79
2023/12/14 12:00:55;;;;;;;13.95;9.02;;;;;;;;;;5792068;28;20056;-79
2023/12/14 12:03:46;;;;;;;17.90;10.70;;;;;;;;;;5791668;28;20429;-79
2023/12/14 12:06:36;;;;;;;15.57;10.45;;;;;;;;;;5775337;28;20061;-79
2023/12/14 12:09:42;;;;;;;14.57;9.60;;;;;;;;;;5791341;28;20046;-79
2023/12/14 12:12:34;;;;;;;9.20;8.25;;;;;;;;;;5793112;28;20085;-79
2023/12/14 12:15:27;;;;;;;12.82;9.90;;;;;;;;;;5792660;28;20043;-79
2023/12/14 12:18:18;;;;;;;13.40;9.43;;;;;;;;;;5793636;28;20054;-79
2023/12/14 12:21:11;;;;;;;11.88;7.68;;;;;;;;;;5793475;28;20132;-79
2023/12/14 12:24:02;;;;;;;15.82;8.95;;;;;;;;;;5777590;28;20054;-79
2023/12/14 12:27:04;;;;;;;13.50;10.35;;;;;;;;;;5793624;28;20055;-79
2023/12/14 12:29:55;;;;;;;10.60;8.57;;;;;;;;;;5794897;28;20061;-79
2023/12/14 12:32:46;;;;;;;16.20;10.45;;;;;;;;;;5794739;28;20058;-79
2023/12/14 12:35:37;;;;;;;16.15;10.23;;;;;;;;;;5793213;28;20157;-79
2023/12/14 12:38:28;;;;;;;18.45;12.88;;;;;;;;;;5777309;28;20043;-79
2023/12/14 12:41:18;;;;;;;17.80;10.60;;;;;;;;;;5777288;28;20098;-79
2023/12/14 12:44:10;;;;;;;18.88;9.93;;;;;;;;;;5793019;28;20148;-79
2023/12/14 12:47:01;;;;;;;16.42;9.07;;;;;;;;;;5793120;28;20058;-79
2023/12/14 12:50:00;;;;;;;15.75;10.52;;;;;;;;;;5794801;28;20051;-79
2023/12/14 12:52:51;;;;;;;13.40;8.93;;;;;;;;;;5793146;28;20053;-79
2023/12/14 12:55:42;;;;;;;9.05;7.38;;;;;;;;;;5792830;28;20358;-79
2023/12/14 12:58:33;;;;;;;15.30;9.52;;;;;;;;;;5793025;28;20043;-79
2023/12/14 13:01:25;;;;;;;15.60;7.20;;;;;;;;;;5789438;28;20050;-79
2023/12/14 13:04:21;;;;;;;13.73;7.63;;;;;;;;;;5792919;28;20343;-79
2023/12/14 13:07:12;;;;;;;13.07;6.93;;;;;;;;;;5792880;28;20054;-79
2023/12/14 13:10:05;;;;;;;15.60;11.55;;;;;;;;;;5795093;28;20432;-79
2023/12/14 13:13:14;;;;;;;13.25;9.13;;;;;;;;;;5792260;28;20046;-79
2023/12/14 13:16:05;;;;;;;13.60;8.88;;;;;;;;;;5794193;28;20053;-79
2023/12/14 13:18:57;;;;;;;23.85;11.02;;;;;;;;;;5794507;28;20165;-79
2023/12/14 13:21:48;;;;;;;13.02;9.30;;;;;;;;;;5794017;28;20057;-79
2023/12/14 13:24:39;;;;;;;12.35;9.43;;;;;;;;;;5792690;28;20042;-79
2023/12/14 13:27:30;;;;;;;11.10;8.75;;;;;;;;;;5776754;28;20386;-79
2023/12/14 13:30:22;;;;;;;16.15;10.57;;;;;;;;;;5792230;28;20103;-79
2023/12/14 13:33:14;;;;;;;15.88;12.00;;;;;;;;;;5776713;28;20069;-79
2023/12/14 13:36:05;;;;;;;13.80;8.15;;;;;;;;;;5776777;28;20050;-79
2023/12/14 13:38:56;;;;;;;17.15;11.80;;;;;;;;;;5792895;28;20394;-79
2023/12/14 13:41:47;;;;;;;15.18;10.18;;;;;;;;;;5792565;28;20054;-79
2023/12/14 13:44:41;;;;;;;11.02;9.10;;;;;;;;;;5792546;28;20057;-79
2023/12/14 13:47:31;;;;;;;17.38;11.07;;;;;;;;;;5792513;28;20047;-79
2023/12/14 13:50:23;;;;;;;11.40;9.48;;;;;;;;;;5776392;28;20043;-79
2023/12/14 13:53:14;;;;;;;10.48;9.45;;;;;;;;;;5788069;28;20512;-80
2023/12/14 13:56:08;;;;;;;9.48;7.20;;;;;;;;;;5792125;28;20393;-79
2023/12/14 13:59:00;;;;;;;14.52;9.25;;;;;;;;;;5792793;28;20051;-79
2023/12/14 14:01:51;;;;;;;12.15;8.63;;;;;;;;;;5792418;28;20061;-79
2023/12/14 14:04:42;;;;;;;15.15;8.80;;;;;;;;;;5792171;28;20513;-79
2023/12/14 14:07:32;;;;;;;28.45;12.10;;;;;;;;;;5793394;28;20154;-79
2023/12/14 14:10:24;;;;;;;20.88;10.70;;;;;;;;;;5792000;28;20050;-79
2023/12/14 14:13:14;;;;;;;19.50;9.88;;;;;;;;;;5776261;28;20047;-79
2023/12/14 14:16:07;;;;;;;15.50;9.18;;;;;;;;;;5793273;28;20081;-79
2023/12/14 14:18:58;;;;;;;15.60;10.65;;;;;;;;;;5792533;28;20057;-80
2023/12/14 14:21:49;;;;;;;32.25;16.85;;;;;;;;;;5792162;28;20047;-79
2023/12/14 14:24:40;;;;;;;21.00;11.25;;;;;;;;;;5793395;28;20047;-79
2023/12/14 14:27:31;;;;;;;19.55;10.00;;;;;;;;;;5797129;28;20051;-79
2023/12/14 14:30:21;;;;;;;15.88;11.70;;;;;;;;;;5797096;28;20073;-79
2023/12/14 14:33:17;;;;;;;14.00;10.63;;;;;;;;;;5795614;28;20054;-79
2023/12/14 14:36:09;;;;;;;22.60;11.65;;;;;;;;;;5795790;28;20519;-79
2023/12/14 14:39:00;;;;;;;19.38;12.23;;;;;;;;;;5797656;28;20047;-79
2023/12/14 14:41:51;;;;;;;13.20;8.77;;;;;;;;;;5789505;28;20493;-79
2023/12/14 14:44:42;;;;;;;6.20;5.60;;;;;;;;;;5795433;28;20057;-79
2023/12/14 14:47:34;;;;;;;11.60;6.03;;;;;;;;;;5795754;28;20493;-79
2023/12/14 14:50:26;;;;;;;12.85;7.72;;;;;;;;;;5779354;28;20346;-79
2023/12/14 14:53:17;;;;;;;10.07;6.53;;;;;;;;;;5796754;28;20074;-79
2023/12/14 14:56:09;;;;;;;13.23;6.72;;;;;;;;;;5797097;28;20410;-79
2023/12/14 14:59:00;;;;;;;12.38;9.13;;;;;;;;;;5796055;28;20058;-79
2023/12/14 15:01:51;;;;;;;15.43;10.40;;;;;;;;;;5795654;28;20083;-79
2023/12/14 15:04:42;;;;;;;26.77;11.30;;;;;;;;;;5778938;28;20420;-79
2023/12/14 15:07:33;;;;;;;11.57;8.38;;;;;;;;;;5795035;28;20075;-79
2023/12/14 15:10:23;;;;;;;7.30;6.20;;;;;;;;;;5794891;28;20047;-79
2023/12/14 15:13:14;;;;;;;14.32;9.50;;;;;;;;;;5795072;28;20050;-79
2023/12/14 15:16:06;;;;;;;15.27;10.48;;;;;;;;;;5796316;28;20059;-79
2023/12/14 15:18:57;;;;;;;8.90;7.13;;;;;;;;;;5796635;28;20085;-79
2023/12/14 15:21:48;;;;;;;10.25;7.15;;;;;;;;;;5796219;28;20058;-79
2023/12/14 15:24:39;;;;;;;11.93;6.10;;;;;;;;;;5794561;28;20046;-79
2023/12/14 15:27:32;;;;;;;9.52;7.30;;;;;;;;;;5792371;28;20054;-79
2023/12/14 15:30:23;;;;;;;12.85;8.07;;;;;;;;;;5794709;28;20043;-79
2023/12/14 15:33:14;;;;;;;10.48;8.98;;;;;;;;;;5794349;28;20055;-79
2023/12/14 15:36:05;;;;;;;5.32;4.82;;;;;;;;;;5793650;28;20051;-79
2023/12/14 15:38:56;;;;;;;9.23;7.72;;;;;;;;;;5778963;28;20054;-79
2023/12/14 15:41:50;;;;;;;14.02;10.05;;;;;;;;;;5794418;28;20049;-80
2023/12/14 15:44:40;;;;;;;9.77;8.50;;;;;;;;;;5794244;28;20046;-79
2023/12/14 15:47:31;;;;;;;15.82;10.38;;;;;;;;;;5794082;28;20069;-79
2023/12/14 15:50:22;;;;;;;13.73;9.90;;;;;;;;;;5794020;28;20122;-79
2023/12/14 15:53:14;;;;;;;20.30;14.13;;;;;;;;;;5795311;28;20054;-79
2023/12/14 15:56:05;;;;;;;11.30;9.27;;;;;;;;;;5794440;28;20062;-79
2023/12/14 15:58:56;;;;;;;15.82;9.23;;;;;;;;;;5794468;28;20126;-80
2023/12/14 16:01:47;;;;;;;15.85;11.38;;;;;;;;;;5793891;28;20562;-80
2023/12/14 16:04:39;;;;;;;25.63;23.08;;;;;;;;;;5793644;28;20043;-79
2023/12/14 16:07:30;;;;;;;23.00;17.63;;;;;;;;;;5793890;28;20109;-79
2023/12/14 16:10:21;;;;;;;20.83;15.35;;;;;;;;;;5795111;28;20051;-79
2023/12/14 16:13:12;;;;;;;41.72;20.75;;;;;;;;;;5795001;28;20051;-79
2023/12/14 16:16:04;;;;;;;48.72;31.23;;;;;;;;;;5794927;28;20061;-79
2023/12/14 16:18:55;;;;;;;38.20;26.65;;;;;;;;;;5777838;28;20050;-80
2023/12/14 16:21:45;;;;;;;36.45;21.08;;;;;;;;;;5794612;28;20122;-80
2023/12/14 16:24:36;;;;;;;17.63;13.13;;;;;;;;;;5795160;28;20062;-80
2023/12/14 16:27:27;;;;;;;14.27;10.63;;;;;;;;;;5794866;28;20050;-80
2023/12/14 16:30:18;;;;;;;23.23;17.25;;;;;;;;;;5793192;28;20516;-80
2023/12/14 16:33:09;;;;;;;21.67;17.88;;;;;;;;;;5793255;28;20130;-80
2023/12/14 16:36:00;;;;;;;16.70;13.02;;;;;;;;;;5795059;28;20051;-80
2023/12/14 16:38:51;;;;;;;22.42;14.88;;;;;;;;;;5793228;28;20043;-80
2023/12/14 16:41:42;;;;;;;17.35;13.70;;;;;;;;;;5794493;28;20054;-79
2023/12/14 16:44:33;;;;;;;14.43;10.57;;;;;;;;;;5794429;28;20046;-79
2023/12/14 16:47:24;;;;;;;19.23;10.73;;;;;;;;;;5792997;28;20046;-79
2023/12/14 16:50:15;;;;;;;7.55;6.25;;;;;;;;;;5792903;28;20514;-79
2023/12/14 16:53:06;;;;;;;19.27;11.63;;;;;;;;;;5793068;28;20047;-79
2023/12/14 16:56:01;;;;;;;15.73;7.65;;;;;;;;;;5794357;28;20367;-79